Main page
METAR-TAF:

METAR-TAF

Airports :

Baghdad International Airport

Baghdad, Iraq

latitude: 33-15-45N, longitude: 44-14-04E, elevation: 35 m

Current weather observation

The report was made 44 minutes ago, at 15:00 UTC
Wind 10 kt from the Southeast
Temperature 22°C
Humidity 53%
Pressure 1007 hPa
Visibility 10 km or more
Broken clouds at a height of 4000 ft

METAR: ORBI 281500Z 13010KT 9999 BKN040 22/12 Q1007 NOSIG

Time: 18:44 (15:44 UTC)

Forecast

The report was made 5 hours and 44 minutes ago, at 10:00 UTC
Forecast valid from 28 at 12 UTC to 29 at 12 UTC
Wind 12 kt from the East/Southeast
Visibility: 6000 m
Few clouds at a height of 3000 ft
Scattered clouds at a height of 3300 ft
Temporary
from 28 at 14 UTC to 28 at 21 UTC
Few clouds at a height of 2500 ft, Cumulonimbus.

TAF: ORBI 281000Z 2812/2912 12012KT 6000 FEW030 SCT033 TEMPO 2814/2821 -TSSHRA FEW025CB

Weather observations and forecasts of more than 4000 airports (METAR and TAF reports).

The available stations are represented by yellow and red dots on the map.

Hover mouse over dot to see the name of the station.

Then click to see weather observations and forecasts.

To change the map : click on the green buttons with a black cross to zoom in, on the green button with a dash to zoom out, or on the green arrows for adjacent maps.


METAR-TAF: